sensor_id;sensor_type;location;lat;lon;timestamp;P1;durP1;ratioP1;P2;durP2;ratioP2
15116;SDS011;7659;51.038;13.786;2023-06-10T00:01:26;10.40;;;8.98;;
15116;SDS011;7659;51.038;13.786;2023-06-10T00:03:53;13.95;;;9.40;;
15116;SDS011;7659;51.038;13.786;2023-06-10T00:06:18;14.55;;;9.50;;
15116;SDS011;7659;51.038;13.786;2023-06-10T00:08:43;10.43;;;8.98;;
15116;SDS011;7659;51.038;13.786;2023-06-10T00:11:09;11.52;;;10.00;;
15116;SDS011;7659;51.038;13.786;2023-06-10T00:13:35;13.20;;;9.60;;
15116;SDS011;7659;51.038;13.786;2023-06-10T00:16:01;12.80;;;9.35;;
15116;SDS011;7659;51.038;13.786;2023-06-10T00:18:26;12.02;;;9.40;;
15116;SDS011;7659;51.038;13.786;2023-06-10T00:20:52;11.80;;;8.25;;
15116;SDS011;7659;51.038;13.786;2023-06-10T00:23:20;15.18;;;11.75;;
15116;SDS011;7659;51.038;13.786;2023-06-10T00:25:46;15.10;;;11.85;;
15116;SDS011;7659;51.038;13.786;2023-06-10T00:28:12;14.23;;;12.10;;
15116;SDS011;7659;51.038;13.786;2023-06-10T00:30:38;12.68;;;9.65;;
15116;SDS011;7659;51.038;13.786;2023-06-10T00:33:04;11.95;;;9.57;;
15116;SDS011;7659;51.038;13.786;2023-06-10T00:35:30;13.48;;;9.20;;
15116;SDS011;7659;51.038;13.786;2023-06-10T00:37:55;11.18;;;8.57;;
15116;SDS011;7659;51.038;13.786;2023-06-10T00:40:20;12.13;;;9.13;;
15116;SDS011;7659;51.038;13.786;2023-06-10T00:42:46;10.60;;;8.88;;
15116;SDS011;7659;51.038;13.786;2023-06-10T00:45:12;12.73;;;8.75;;
15116;SDS011;7659;51.038;13.786;2023-06-10T00:47:38;10.30;;;8.05;;
15116;SDS011;7659;51.038;13.786;2023-06-10T00:50:03;11.88;;;8.43;;
15116;SDS011;7659;51.038;13.786;2023-06-10T00:52:29;11.15;;;8.68;;
15116;SDS011;7659;51.038;13.786;2023-06-10T00:54:58;10.25;;;8.15;;
15116;SDS011;7659;51.038;13.786;2023-06-10T00:57:24;11.48;;;7.88;;
15116;SDS011;7659;51.038;13.786;2023-06-10T00:59:50;14.30;;;8.77;;
15116;SDS011;7659;51.038;13.786;2023-06-10T01:02:16;12.15;;;8.38;;
15116;SDS011;7659;51.038;13.786;2023-06-10T01:04:41;13.30;;;8.48;;
15116;SDS011;7659;51.038;13.786;2023-06-10T01:07:26;8.25;;;7.43;;
15116;SDS011;7659;51.038;13.786;2023-06-10T01:14:47;15.02;;;9.05;;
15116;SDS011;7659;51.038;13.786;2023-06-10T01:17:14;14.30;;;9.15;;
15116;SDS011;7659;51.038;13.786;2023-06-10T01:19:41;11.32;;;8.88;;
15116;SDS011;7659;51.038;13.786;2023-06-10T01:22:09;12.80;;;9.45;;
15116;SDS011;7659;51.038;13.786;2023-06-10T01:24:36;10.85;;;9.00;;
15116;SDS011;7659;51.038;13.786;2023-06-10T01:27:01;10.23;;;9.00;;
15116;SDS011;7659;51.038;13.786;2023-06-10T01:29:33;12.70;;;9.32;;
15116;SDS011;7659;51.038;13.786;2023-06-10T01:32:07;12.68;;;9.48;;
15116;SDS011;7659;51.038;13.786;2023-06-10T01:34:36;13.18;;;9.40;;
15116;SDS011;7659;51.038;13.786;2023-06-10T01:37:02;10.23;;;9.23;;
15116;SDS011;7659;51.038;13.786;2023-06-10T01:39:29;13.35;;;9.73;;
15116;SDS011;7659;51.038;13.786;2023-06-10T01:41:55;11.70;;;10.43;;
15116;SDS011;7659;51.038;13.786;2023-06-10T01:44:22;12.18;;;10.73;;
15116;SDS011;7659;51.038;13.786;2023-06-10T01:46:47;12.18;;;10.32;;
15116;SDS011;7659;51.038;13.786;2023-06-10T01:49:13;13.32;;;11.07;;
15116;SDS011;7659;51.038;13.786;2023-06-10T01:51:39;14.95;;;10.60;;
15116;SDS011;7659;51.038;13.786;2023-06-10T01:54:06;11.23;;;9.93;;
15116;SDS011;7659;51.038;13.786;2023-06-10T01:56:32;15.48;;;11.20;;
15116;SDS011;7659;51.038;13.786;2023-06-10T01:58:57;16.50;;;10.90;;
15116;SDS011;7659;51.038;13.786;2023-06-10T02:01:24;14.02;;;10.70;;
15116;SDS011;7659;51.038;13.786;2023-06-10T02:03:50;13.32;;;10.85;;
15116;SDS011;7659;51.038;13.786;2023-06-10T02:06:16;14.85;;;10.93;;
15116;SDS011;7659;51.038;13.786;2023-06-10T02:08:41;15.68;;;11.32;;
15116;SDS011;7659;51.038;13.786;2023-06-10T02:11:07;18.88;;;11.82;;
15116;SDS011;7659;51.038;13.786;2023-06-10T02:13:33;13.63;;;10.70;;
15116;SDS011;7659;51.038;13.786;2023-06-10T02:15:58;15.85;;;11.57;;
15116;SDS011;7659;51.038;13.786;2023-06-10T02:18:28;13.32;;;11.40;;
15116;SDS011;7659;51.038;13.786;2023-06-10T02:20:54;13.63;;;11.05;;
15116;SDS011;7659;51.038;13.786;2023-06-10T02:23:19;15.90;;;11.50;;
15116;SDS011;7659;51.038;13.786;2023-06-10T02:25:45;15.45;;;11.48;;
15116;SDS011;7659;51.038;13.786;2023-06-10T02:28:10;12.98;;;11.57;;
15116;SDS011;7659;51.038;13.786;2023-06-10T02:30:38;14.70;;;11.60;;
15116;SDS011;7659;51.038;13.786;2023-06-10T02:33:04;13.10;;;11.27;;
15116;SDS011;7659;51.038;13.786;2023-06-10T02:35:30;13.35;;;11.70;;
15116;SDS011;7659;51.038;13.786;2023-06-10T02:37:56;13.70;;;12.20;;
15116;SDS011;7659;51.038;13.786;2023-06-10T02:40:22;15.73;;;11.95;;
15116;SDS011;7659;51.038;13.786;2023-06-10T02:42:48;13.63;;;11.32;;
15116;SDS011;7659;51.038;13.786;2023-06-10T02:45:13;15.23;;;10.98;;
15116;SDS011;7659;51.038;13.786;2023-06-10T02:47:41;14.52;;;12.02;;
15116;SDS011;7659;51.038;13.786;2023-06-10T02:50:08;13.68;;;11.35;;
15116;SDS011;7659;51.038;13.786;2023-06-10T02:52:40;13.35;;;11.63;;
15116;SDS011;7659;51.038;13.786;2023-06-10T02:55:06;14.27;;;12.02;;
15116;SDS011;7659;51.038;13.786;2023-06-10T02:57:32;14.23;;;11.85;;
15116;SDS011;7659;51.038;13.786;2023-06-10T03:00:00;14.70;;;11.77;;
15116;SDS011;7659;51.038;13.786;2023-06-10T03:02:28;16.38;;;12.55;;
15116;SDS011;7659;51.038;13.786;2023-06-10T03:04:55;13.90;;;11.50;;
15116;SDS011;7659;51.038;13.786;2023-06-10T03:07:21;19.52;;;13.13;;
15116;SDS011;7659;51.038;13.786;2023-06-10T03:09:48;13.93;;;12.50;;
15116;SDS011;7659;51.038;13.786;2023-06-10T03:12:14;13.63;;;11.68;;
15116;SDS011;7659;51.038;13.786;2023-06-10T03:14:44;14.73;;;12.20;;
15116;SDS011;7659;51.038;13.786;2023-06-10T03:17:10;13.65;;;11.98;;
15116;SDS011;7659;51.038;13.786;2023-06-10T03:19:38;14.25;;;12.23;;
15116;SDS011;7659;51.038;13.786;2023-06-10T03:22:08;13.55;;;11.75;;
15116;SDS011;7659;51.038;13.786;2023-06-10T03:24:37;14.15;;;11.38;;
15116;SDS011;7659;51.038;13.786;2023-06-10T03:27:06;13.88;;;11.55;;
15116;SDS011;7659;51.038;13.786;2023-06-10T03:29:33;12.98;;;11.35;;
15116;SDS011;7659;51.038;13.786;2023-06-10T03:31:59;19.80;;;11.65;;
15116;SDS011;7659;51.038;13.786;2023-06-10T03:34:25;12.98;;;11.68;;
15116;SDS011;7659;51.038;13.786;2023-06-10T03:36:51;13.80;;;11.07;;
15116;SDS011;7659;51.038;13.786;2023-06-10T03:39:17;13.00;;;10.93;;
15116;SDS011;7659;51.038;13.786;2023-06-10T03:41:42;11.43;;;10.20;;
15116;SDS011;7659;51.038;13.786;2023-06-10T03:44:09;12.27;;;11.02;;
15116;SDS011;7659;51.038;13.786;2023-06-10T03:46:35;11.45;;;10.23;;
15116;SDS011;7659;51.038;13.786;2023-06-10T03:49:02;13.07;;;10.13;;
15116;SDS011;7659;51.038;13.786;2023-06-10T03:51:29;13.82;;;10.95;;
15116;SDS011;7659;51.038;13.786;2023-06-10T03:53:54;14.70;;;11.55;;
15116;SDS011;7659;51.038;13.786;2023-06-10T03:56:21;13.07;;;10.30;;
15116;SDS011;7659;51.038;13.786;2023-06-10T03:58:46;11.13;;;9.50;;
15116;SDS011;7659;51.038;13.786;2023-06-10T04:01:12;12.43;;;11.13;;
15116;SDS011;7659;51.038;13.786;2023-06-10T04:03:38;11.55;;;10.35;;
15116;SDS011;7659;51.038;13.786;2023-06-10T04:06:04;11.52;;;9.77;;
15116;SDS011;7659;51.038;13.786;2023-06-10T04:08:30;12.38;;;10.45;;
15116;SDS011;7659;51.038;13.786;2023-06-10T04:10:58;12.40;;;9.93;;
15116;SDS011;7659;51.038;13.786;2023-06-10T04:13:26;12.10;;;10.85;;
15116;SDS011;7659;51.038;13.786;2023-06-10T04:15:55;12.35;;;9.65;;
15116;SDS011;7659;51.038;13.786;2023-06-10T04:18:20;12.52;;;9.68;;
15116;SDS011;7659;51.038;13.786;2023-06-10T04:20:47;10.70;;;9.63;;
15116;SDS011;7659;51.038;13.786;2023-06-10T04:23:13;10.40;;;8.93;;
15116;SDS011;7659;51.038;13.786;2023-06-10T04:25:41;11.82;;;9.57;;
15116;SDS011;7659;51.038;13.786;2023-06-10T04:28:07;13.25;;;10.05;;
15116;SDS011;7659;51.038;13.786;2023-06-10T04:30:32;10.63;;;9.60;;
15116;SDS011;7659;51.038;13.786;2023-06-10T04:33:00;10.90;;;9.10;;
15116;SDS011;7659;51.038;13.786;2023-06-10T04:35:26;11.20;;;10.02;;
15116;SDS011;7659;51.038;13.786;2023-06-10T04:37:58;11.77;;;9.68;;
15116;SDS011;7659;51.038;13.786;2023-06-10T04:40:23;11.30;;;8.48;;
15116;SDS011;7659;51.038;13.786;2023-06-10T04:42:49;10.90;;;9.45;;
15116;SDS011;7659;51.038;13.786;2023-06-10T04:45:14;10.32;;;9.05;;
15116;SDS011;7659;51.038;13.786;2023-06-10T04:47:41;10.55;;;9.13;;
15116;SDS011;7659;51.038;13.786;2023-06-10T04:50:07;14.07;;;9.35;;
15116;SDS011;7659;51.038;13.786;2023-06-10T04:52:32;12.00;;;10.27;;
15116;SDS011;7659;51.038;13.786;2023-06-10T04:54:59;14.85;;;11.43;;
15116;SDS011;7659;51.038;13.786;2023-06-10T04:57:24;14.77;;;11.80;;
15116;SDS011;7659;51.038;13.786;2023-06-10T04:59:51;13.32;;;11.90;;
15116;SDS011;7659;51.038;13.786;2023-06-10T05:02:17;17.13;;;11.55;;
15116;SDS011;7659;51.038;13.786;2023-06-10T05:04:42;14.45;;;12.02;;
15116;SDS011;7659;51.038;13.786;2023-06-10T05:07:08;13.13;;;11.35;;
15116;SDS011;7659;51.038;13.786;2023-06-10T05:09:34;13.93;;;11.18;;
15116;SDS011;7659;51.038;13.786;2023-06-10T05:12:00;15.05;;;10.88;;
15116;SDS011;7659;51.038;13.786;2023-06-10T05:14:25;12.45;;;9.35;;
15116;SDS011;7659;51.038;13.786;2023-06-10T05:16:50;11.27;;;9.18;;
15116;SDS011;7659;51.038;13.786;2023-06-10T05:19:16;10.57;;;9.05;;
15116;SDS011;7659;51.038;13.786;2023-06-10T05:21:43;15.50;;;8.65;;
15116;SDS011;7659;51.038;13.786;2023-06-10T05:24:09;9.60;;;8.10;;
15116;SDS011;7659;51.038;13.786;2023-06-10T05:26:35;9.88;;;8.50;;
15116;SDS011;7659;51.038;13.786;2023-06-10T05:29:03;9.50;;;8.50;;
15116;SDS011;7659;51.038;13.786;2023-06-10T05:31:28;13.13;;;8.63;;
15116;SDS011;7659;51.038;13.786;2023-06-10T05:33:53;11.80;;;8.63;;
15116;SDS011;7659;51.038;13.786;2023-06-10T05:36:19;11.80;;;8.18;;
15116;SDS011;7659;51.038;13.786;2023-06-10T05:38:44;15.23;;;9.23;;
15116;SDS011;7659;51.038;13.786;2023-06-10T05:41:10;8.98;;;8.10;;
15116;SDS011;7659;51.038;13.786;2023-06-10T05:43:35;9.70;;;8.40;;
15116;SDS011;7659;51.038;13.786;2023-06-10T05:46:01;9.43;;;7.75;;
15116;SDS011;7659;51.038;13.786;2023-06-10T05:48:28;9.35;;;7.25;;
15116;SDS011;7659;51.038;13.786;2023-06-10T05:50:53;11.65;;;7.47;;
15116;SDS011;7659;51.038;13.786;2023-06-10T05:53:19;9.00;;;7.43;;
15116;SDS011;7659;51.038;13.786;2023-06-10T05:55:44;10.43;;;8.10;;
15116;SDS011;7659;51.038;13.786;2023-06-10T05:58:10;7.57;;;6.88;;
15116;SDS011;7659;51.038;13.786;2023-06-10T06:00:38;11.60;;;7.95;;
15116;SDS011;7659;51.038;13.786;2023-06-10T06:03:03;8.07;;;7.28;;
15116;SDS011;7659;51.038;13.786;2023-06-10T06:05:28;8.85;;;7.10;;
15116;SDS011;7659;51.038;13.786;2023-06-10T06:08:00;8.68;;;7.43;;
15116;SDS011;7659;51.038;13.786;2023-06-10T06:10:26;8.52;;;7.35;;
15116;SDS011;7659;51.038;13.786;2023-06-10T06:12:52;9.93;;;7.00;;
15116;SDS011;7659;51.038;13.786;2023-06-10T06:15:17;10.93;;;6.90;;
15116;SDS011;7659;51.038;13.786;2023-06-10T06:17:43;9.13;;;6.25;;
15116;SDS011;7659;51.038;13.786;2023-06-10T06:20:08;8.48;;;6.10;;
15116;SDS011;7659;51.038;13.786;2023-06-10T06:22:34;7.00;;;6.30;;
15116;SDS011;7659;51.038;13.786;2023-06-10T06:24:59;7.15;;;6.45;;
15116;SDS011;7659;51.038;13.786;2023-06-10T06:27:25;6.63;;;5.93;;
15116;SDS011;7659;51.038;13.786;2023-06-10T06:29:50;7.45;;;6.15;;
15116;SDS011;7659;51.038;13.786;2023-06-10T06:32:16;7.57;;;6.13;;
15116;SDS011;7659;51.038;13.786;2023-06-10T06:34:41;7.00;;;6.30;;
15116;SDS011;7659;51.038;13.786;2023-06-10T06:37:07;6.20;;;5.63;;
15116;SDS011;7659;51.038;13.786;2023-06-10T06:39:35;7.65;;;5.97;;
15116;SDS011;7659;51.038;13.786;2023-06-10T06:42:00;6.93;;;6.22;;
15116;SDS011;7659;51.038;13.786;2023-06-10T06:44:42;7.18;;;6.43;;
15116;SDS011;7659;51.038;13.786;2023-06-10T06:47:08;6.88;;;6.15;;
15116;SDS011;7659;51.038;13.786;2023-06-10T06:49:33;6.88;;;6.15;;
15116;SDS011;7659;51.038;13.786;2023-06-10T06:51:59;7.25;;;6.35;;
15116;SDS011;7659;51.038;13.786;2023-06-10T06:54:24;8.00;;;6.60;;
15116;SDS011;7659;51.038;13.786;2023-06-10T06:56:50;7.78;;;6.47;;
15116;SDS011;7659;51.038;13.786;2023-06-10T06:59:15;7.05;;;6.18;;
15116;SDS011;7659;51.038;13.786;2023-06-10T07:01:42;9.23;;;6.45;;
15116;SDS011;7659;51.038;13.786;2023-06-10T07:04:08;7.32;;;6.60;;
15116;SDS011;7659;51.038;13.786;2023-06-10T07:06:33;6.15;;;5.55;;
15116;SDS011;7659;51.038;13.786;2023-06-10T07:08:59;9.70;;;5.90;;
15116;SDS011;7659;51.038;13.786;2023-06-10T07:11:24;6.07;;;5.45;;
15116;SDS011;7659;51.038;13.786;2023-06-10T07:13:50;7.75;;;6.00;;
15116;SDS011;7659;51.038;13.786;2023-06-10T07:16:16;11.40;;;6.10;;
15116;SDS011;7659;51.038;13.786;2023-06-10T07:18:41;7.80;;;5.72;;
15116;SDS011;7659;51.038;13.786;2023-06-10T07:21:07;12.88;;;5.40;;
15116;SDS011;7659;51.038;13.786;2023-06-10T07:23:32;7.15;;;5.38;;
15116;SDS011;7659;51.038;13.786;2023-06-10T07:25:58;6.13;;;5.05;;
15116;SDS011;7659;51.038;13.786;2023-06-10T07:28:23;8.93;;;7.88;;
15116;SDS011;7659;51.038;13.786;2023-06-10T07:30:49;10.02;;;6.10;;
15116;SDS011;7659;51.038;13.786;2023-06-10T07:33:14;7.85;;;5.65;;
15116;SDS011;7659;51.038;13.786;2023-06-10T07:35:40;6.95;;;5.22;;
15116;SDS011;7659;51.038;13.786;2023-06-10T07:38:08;8.65;;;5.43;;
15116;SDS011;7659;51.038;13.786;2023-06-10T07:40:33;6.15;;;5.35;;
15116;SDS011;7659;51.038;13.786;2023-06-10T07:42:59;7.82;;;5.25;;
15116;SDS011;7659;51.038;13.786;2023-06-10T07:45:25;9.23;;;6.57;;
15116;SDS011;7659;51.038;13.786;2023-06-10T07:47:50;11.98;;;9.65;;
15116;SDS011;7659;51.038;13.786;2023-06-10T07:50:16;7.20;;;5.97;;
15116;SDS011;7659;51.038;13.786;2023-06-10T07:52:41;7.47;;;6.10;;
15116;SDS011;7659;51.038;13.786;2023-06-10T07:55:07;9.95;;;5.55;;
15116;SDS011;7659;51.038;13.786;2023-06-10T07:57:32;11.95;;;5.95;;
15116;SDS011;7659;51.038;13.786;2023-06-10T08:00:03;8.02;;;5.47;;
15116;SDS011;7659;51.038;13.786;2023-06-10T08:02:49;7.40;;;5.80;;
15116;SDS011;7659;51.038;13.786;2023-06-10T08:05:15;7.18;;;5.15;;
15116;SDS011;7659;51.038;13.786;2023-06-10T08:07:41;6.65;;;5.35;;
15116;SDS011;7659;51.038;13.786;2023-06-10T08:10:08;8.07;;;5.70;;
15116;SDS011;7659;51.038;13.786;2023-06-10T08:12:33;9.20;;;6.55;;
15116;SDS011;7659;51.038;13.786;2023-06-10T08:14:59;7.95;;;5.80;;
15116;SDS011;7659;51.038;13.786;2023-06-10T08:17:25;7.47;;;5.28;;
15116;SDS011;7659;51.038;13.786;2023-06-10T08:19:50;7.28;;;5.40;;
15116;SDS011;7659;51.038;13.786;2023-06-10T08:22:16;8.73;;;5.50;;
15116;SDS011;7659;51.038;13.786;2023-06-10T08:24:41;8.57;;;5.47;;
15116;SDS011;7659;51.038;13.786;2023-06-10T08:27:07;7.70;;;5.97;;
15116;SDS011;7659;51.038;13.786;2023-06-10T08:29:32;6.72;;;5.63;;
15116;SDS011;7659;51.038;13.786;2023-06-10T08:31:58;6.97;;;5.40;;
15116;SDS011;7659;51.038;13.786;2023-06-10T08:34:24;8.45;;;6.07;;
15116;SDS011;7659;51.038;13.786;2023-06-10T08:36:49;6.45;;;5.45;;
15116;SDS011;7659;51.038;13.786;2023-06-10T08:39:21;6.43;;;5.47;;
15116;SDS011;7659;51.038;13.786;2023-06-10T08:44:33;6.45;;;5.60;;
15116;SDS011;7659;51.038;13.786;2023-06-10T08:47:04;7.47;;;5.38;;
15116;SDS011;7659;51.038;13.786;2023-06-10T08:49:31;10.15;;;5.45;;
15116;SDS011;7659;51.038;13.786;2023-06-10T08:51:59;7.03;;;5.20;;
15116;SDS011;7659;51.038;13.786;2023-06-10T08:54:27;10.73;;;5.28;;
15116;SDS011;7659;51.038;13.786;2023-06-10T08:56:54;8.48;;;5.63;;
15116;SDS011;7659;51.038;13.786;2023-06-10T08:59:20;9.15;;;5.72;;
15116;SDS011;7659;51.038;13.786;2023-06-10T09:01:46;9.38;;;6.13;;
15116;SDS011;7659;51.038;13.786;2023-06-10T09:04:12;12.15;;;5.80;;
15116;SDS011;7659;51.038;13.786;2023-06-10T09:06:38;12.60;;;6.03;;
15116;SDS011;7659;51.038;13.786;2023-06-10T09:09:05;7.13;;;5.53;;
15116;SDS011;7659;51.038;13.786;2023-06-10T09:11:31;7.72;;;5.68;;
15116;SDS011;7659;51.038;13.786;2023-06-10T09:13:56;7.90;;;5.88;;
15116;SDS011;7659;51.038;13.786;2023-06-10T09:16:22;6.72;;;4.72;;
15116;SDS011;7659;51.038;13.786;2023-06-10T09:18:48;14.00;;;5.70;;
15116;SDS011;7659;51.038;13.786;2023-06-10T09:21:13;5.97;;;4.75;;
15116;SDS011;7659;51.038;13.786;2023-06-10T09:23:39;6.45;;;5.30;;
15116;SDS011;7659;51.038;13.786;2023-06-10T09:26:07;6.13;;;5.28;;
15116;SDS011;7659;51.038;13.786;2023-06-10T09:28:33;7.70;;;4.70;;
15116;SDS011;7659;51.038;13.786;2023-06-10T09:31:02;11.70;;;5.28;;
15116;SDS011;7659;51.038;13.786;2023-06-10T09:33:28;7.72;;;4.93;;
15116;SDS011;7659;51.038;13.786;2023-06-10T09:35:54;5.32;;;4.80;;
15116;SDS011;7659;51.038;13.786;2023-06-10T09:38:21;7.57;;;5.43;;
15116;SDS011;7659;51.038;13.786;2023-06-10T09:40:53;4.88;;;4.40;;
15116;SDS011;7659;51.038;13.786;2023-06-10T09:43:19;6.68;;;5.15;;
15116;SDS011;7659;51.038;13.786;2023-06-10T09:45:47;8.35;;;4.97;;
15116;SDS011;7659;51.038;13.786;2023-06-10T09:48:12;7.57;;;4.93;;
15116;SDS011;7659;51.038;13.786;2023-06-10T09:50:42;7.18;;;4.93;;
15116;SDS011;7659;51.038;13.786;2023-06-10T09:53:08;9.02;;;4.80;;
15116;SDS011;7659;51.038;13.786;2023-06-10T09:55:33;7.63;;;4.40;;
15116;SDS011;7659;51.038;13.786;2023-06-10T09:57:59;5.65;;;4.35;;
15116;SDS011;7659;51.038;13.786;2023-06-10T10:00:25;7.97;;;4.85;;
15116;SDS011;7659;51.038;13.786;2023-06-10T10:02:51;8.95;;;4.95;;
15116;SDS011;7659;51.038;13.786;2023-06-10T10:05:18;5.68;;;4.72;;
15116;SDS011;7659;51.038;13.786;2023-06-10T10:07:44;10.60;;;7.53;;
15116;SDS011;7659;51.038;13.786;2023-06-10T10:10:10;8.90;;;5.22;;
15116;SDS011;7659;51.038;13.786;2023-06-10T10:12:37;5.40;;;4.60;;
15116;SDS011;7659;51.038;13.786;2023-06-10T10:15:03;8.77;;;4.85;;
15116;SDS011;7659;51.038;13.786;2023-06-10T10:17:28;8.77;;;4.90;;
15116;SDS011;7659;51.038;13.786;2023-06-10T10:19:58;5.20;;;4.65;;
15116;SDS011;7659;51.038;13.786;2023-06-10T10:22:26;8.10;;;4.93;;
15116;SDS011;7659;51.038;13.786;2023-06-10T10:24:53;9.63;;;4.40;;
15116;SDS011;7659;51.038;13.786;2023-06-10T10:27:24;12.63;;;4.75;;
15116;SDS011;7659;51.038;13.786;2023-06-10T10:29:52;6.82;;;5.15;;
15116;SDS011;7659;51.038;13.786;2023-06-10T10:32:18;8.02;;;4.38;;
15116;SDS011;7659;51.038;13.786;2023-06-10T10:37:12;5.88;;;4.38;;
15116;SDS011;7659;51.038;13.786;2023-06-10T10:39:37;7.20;;;4.95;;
15116;SDS011;7659;51.038;13.786;2023-06-10T10:42:03;7.93;;;5.25;;
15116;SDS011;7659;51.038;13.786;2023-06-10T10:44:30;8.40;;;4.75;;
15116;SDS011;7659;51.038;13.786;2023-06-10T10:46:56;5.10;;;4.25;;
15116;SDS011;7659;51.038;13.786;2023-06-10T10:49:22;5.35;;;4.00;;
15116;SDS011;7659;51.038;13.786;2023-06-10T10:51:58;6.13;;;4.07;;
15116;SDS011;7659;51.038;13.786;2023-06-10T10:59:46;8.73;;;4.07;;
15116;SDS011;7659;51.038;13.786;2023-06-10T11:02:42;5.63;;;4.00;;
15116;SDS011;7659;51.038;13.786;2023-06-10T11:05:13;11.02;;;3.90;;
15116;SDS011;7659;51.038;13.786;2023-06-10T11:07:38;7.68;;;4.10;;
15116;SDS011;7659;51.038;13.786;2023-06-10T11:10:08;8.25;;;3.78;;
15116;SDS011;7659;51.038;13.786;2023-06-10T11:15:11;6.50;;;3.50;;
15116;SDS011;7659;51.038;13.786;2023-06-10T11:17:37;7.25;;;4.22;;
15116;SDS011;7659;51.038;13.786;2023-06-10T11:20:03;9.30;;;4.60;;
15116;SDS011;7659;51.038;13.786;2023-06-10T11:22:29;10.07;;;5.97;;
15116;SDS011;7659;51.038;13.786;2023-06-10T11:24:54;7.63;;;4.05;;
15116;SDS011;7659;51.038;13.786;2023-06-10T11:27:21;4.68;;;3.97;;
15116;SDS011;7659;51.038;13.786;2023-06-10T11:32:21;5.45;;;4.28;;
15116;SDS011;7659;51.038;13.786;2023-06-10T11:34:53;8.25;;;4.28;;
15116;SDS011;7659;51.038;13.786;2023-06-10T11:37:19;4.95;;;4.20;;
15116;SDS011;7659;51.038;13.786;2023-06-10T11:39:44;7.55;;;4.55;;
15116;SDS011;7659;51.038;13.786;2023-06-10T11:42:10;10.38;;;4.53;;
15116;SDS011;7659;51.038;13.786;2023-06-10T11:44:36;5.80;;;4.63;;
15116;SDS011;7659;51.038;13.786;2023-06-10T11:47:03;8.15;;;4.20;;
15116;SDS011;7659;51.038;13.786;2023-06-10T11:49:28;6.97;;;3.95;;
15116;SDS011;7659;51.038;13.786;2023-06-10T11:51:54;7.68;;;4.32;;
15116;SDS011;7659;51.038;13.786;2023-06-10T11:54:19;6.85;;;3.97;;
15116;SDS011;7659;51.038;13.786;2023-06-10T11:56:46;7.25;;;4.50;;
15116;SDS011;7659;51.038;13.786;2023-06-10T11:59:11;8.82;;;4.07;;
15116;SDS011;7659;51.038;13.786;2023-06-10T12:01:37;7.05;;;4.03;;
15116;SDS011;7659;51.038;13.786;2023-06-10T12:04:14;5.05;;;3.78;;
15116;SDS011;7659;51.038;13.786;2023-06-10T12:06:48;10.20;;;3.90;;
15116;SDS011;7659;51.038;13.786;2023-06-10T12:09:14;4.43;;;3.92;;
15116;SDS011;7659;51.038;13.786;2023-06-10T12:11:40;6.45;;;3.88;;
15116;SDS011;7659;51.038;13.786;2023-06-10T12:14:07;4.07;;;3.67;;
15116;SDS011;7659;51.038;13.786;2023-06-10T12:16:32;5.60;;;3.67;;
15116;SDS011;7659;51.038;13.786;2023-06-10T12:19:04;8.63;;;3.85;;
15116;SDS011;7659;51.038;13.786;2023-06-10T12:21:31;7.03;;;3.88;;
15116;SDS011;7659;51.038;13.786;2023-06-10T12:24:00;9.43;;;3.85;;
15116;SDS011;7659;51.038;13.786;2023-06-10T12:26:35;10.00;;;3.55;;
15116;SDS011;7659;51.038;13.786;2023-06-10T12:29:02;12.20;;;4.22;;
15116;SDS011;7659;51.038;13.786;2023-06-10T12:31:27;5.30;;;3.60;;
15116;SDS011;7659;51.038;13.786;2023-06-10T12:34:14;4.93;;;3.50;;
15116;SDS011;7659;51.038;13.786;2023-06-10T12:36:38;7.13;;;3.72;;
15116;SDS011;7659;51.038;13.786;2023-06-10T12:39:04;6.63;;;3.83;;
15116;SDS011;7659;51.038;13.786;2023-06-10T12:41:29;6.00;;;3.92;;
15116;SDS011;7659;51.038;13.786;2023-06-10T12:43:55;12.15;;;4.43;;
15116;SDS011;7659;51.038;13.786;2023-06-10T12:46:20;5.40;;;3.90;;
15116;SDS011;7659;51.038;13.786;2023-06-10T12:48:49;6.53;;;3.60;;
15116;SDS011;7659;51.038;13.786;2023-06-10T12:51:16;8.02;;;3.85;;
15116;SDS011;7659;51.038;13.786;2023-06-10T12:53:42;5.80;;;3.83;;
15116;SDS011;7659;51.038;13.786;2023-06-10T12:56:08;7.00;;;4.22;;
15116;SDS011;7659;51.038;13.786;2023-06-10T12:58:34;8.93;;;3.90;;
15116;SDS011;7659;51.038;13.786;2023-06-10T13:01:00;12.23;;;3.78;;
15116;SDS011;7659;51.038;13.786;2023-06-10T13:03:25;4.85;;;4.05;;
15116;SDS011;7659;51.038;13.786;2023-06-10T13:05:51;8.57;;;4.03;;
15116;SDS011;7659;51.038;13.786;2023-06-10T13:08:17;6.88;;;4.15;;
15116;SDS011;7659;51.038;13.786;2023-06-10T13:10:42;7.18;;;3.80;;
15116;SDS011;7659;51.038;13.786;2023-06-10T13:13:08;5.13;;;3.83;;
15116;SDS011;7659;51.038;13.786;2023-06-10T13:15:34;6.65;;;3.70;;
15116;SDS011;7659;51.038;13.786;2023-06-10T13:18:03;8.90;;;4.47;;
15116;SDS011;7659;51.038;13.786;2023-06-10T13:20:29;6.32;;;3.80;;
15116;SDS011;7659;51.038;13.786;2023-06-10T13:22:54;4.80;;;3.78;;
15116;SDS011;7659;51.038;13.786;2023-06-10T13:25:20;5.93;;;2.85;;
15116;SDS011;7659;51.038;13.786;2023-06-10T13:27:45;16.63;;;3.92;;
15116;SDS011;7659;51.038;13.786;2023-06-10T13:30:11;5.47;;;3.08;;
15116;SDS011;7659;51.038;13.786;2023-06-10T13:32:36;3.72;;;2.90;;
15116;SDS011;7659;51.038;13.786;2023-06-10T13:35:02;4.65;;;2.60;;
15116;SDS011;7659;51.038;13.786;2023-06-10T13:37:28;4.93;;;2.53;;
15116;SDS011;7659;51.038;13.786;2023-06-10T13:39:53;2.85;;;2.30;;
15116;SDS011;7659;51.038;13.786;2023-06-10T13:42:19;5.07;;;2.45;;
15116;SDS011;7659;51.038;13.786;2023-06-10T13:44:46;2.60;;;2.40;;
15116;SDS011;7659;51.038;13.786;2023-06-10T13:47:12;2.58;;;2.30;;
15116;SDS011;7659;51.038;13.786;2023-06-10T13:49:38;6.38;;;2.60;;
15116;SDS011;7659;51.038;13.786;2023-06-10T13:52:04;3.85;;;2.30;;
15116;SDS011;7659;51.038;13.786;2023-06-10T13:54:29;3.15;;;2.55;;
15116;SDS011;7659;51.038;13.786;2023-06-10T13:56:55;3.22;;;2.40;;
15116;SDS011;7659;51.038;13.786;2023-06-10T13:59:20;3.92;;;2.60;;
15116;SDS011;7659;51.038;13.786;2023-06-10T14:01:46;6.30;;;2.45;;
15116;SDS011;7659;51.038;13.786;2023-06-10T14:04:12;3.05;;;2.72;;
15116;SDS011;7659;51.038;13.786;2023-06-10T14:06:37;4.28;;;2.80;;
15116;SDS011;7659;51.038;13.786;2023-06-10T14:09:03;4.63;;;2.60;;
15116;SDS011;7659;51.038;13.786;2023-06-10T14:11:28;4.25;;;2.33;;
15116;SDS011;7659;51.038;13.786;2023-06-10T14:13:54;3.65;;;2.10;;
15116;SDS011;7659;51.038;13.786;2023-06-10T14:16:21;2.40;;;2.05;;
15116;SDS011;7659;51.038;13.786;2023-06-10T14:18:47;4.50;;;2.35;;
15116;SDS011;7659;51.038;13.786;2023-06-10T14:21:12;5.80;;;2.42;;
15116;SDS011;7659;51.038;13.786;2023-06-10T14:23:38;3.67;;;2.30;;
15116;SDS011;7659;51.038;13.786;2023-06-10T14:26:03;3.55;;;2.40;;
15116;SDS011;7659;51.038;13.786;2023-06-10T14:28:30;5.70;;;2.47;;
15116;SDS011;7659;51.038;13.786;2023-06-10T14:30:56;4.63;;;2.33;;
15116;SDS011;7659;51.038;13.786;2023-06-10T14:33:23;7.30;;;2.88;;
15116;SDS011;7659;51.038;13.786;2023-06-10T14:35:48;4.60;;;2.90;;
15116;SDS011;7659;51.038;13.786;2023-06-10T14:38:13;5.63;;;2.70;;
15116;SDS011;7659;51.038;13.786;2023-06-10T14:40:39;3.00;;;2.30;;
15116;SDS011;7659;51.038;13.786;2023-06-10T14:43:04;5.43;;;2.70;;
15116;SDS011;7659;51.038;13.786;2023-06-10T14:45:38;4.95;;;2.83;;
15116;SDS011;7659;51.038;13.786;2023-06-10T14:48:04;6.28;;;3.13;;
15116;SDS011;7659;51.038;13.786;2023-06-10T14:50:30;3.15;;;2.92;;
15116;SDS011;7659;51.038;13.786;2023-06-10T14:52:55;4.57;;;3.03;;
15116;SDS011;7659;51.038;13.786;2023-06-10T14:55:21;4.38;;;3.20;;